Terminal Aerodrome Forecast
Issued by NWS

Home | Current Version | Previous Version | Graphics & Text | Print | Product List | Glossary On
Versions: 1 2 3 4 5 6 7 8 9 10 11 12 13 14 15 16
294
FTUS43 KGRB 201005 AAA
TAFCWA
TAF AMD
KCWA 201005Z 2010/2106 09013KT 6SM RA BR OVC006
     FM201200 09011KT 6SM -RA OVC008
     FM201300 14009KT 4SM -RA BR OVC003
     FM201400 23007KT 3SM -RA BR OVC003
     FM201500 27006KT 6SM BR VCSH OVC006
     FM201800 28012G22KT P6SM OVC012
     FM202300 30012G21KT P6SM SCT020 OVC035=

USA.gov is the U.S. government's official web portal to all federal, state and local government web resources and services.